Dmitrov, Russia
Current Conditions -  °F | °C
As of 3:30 PM on Wednesday 22 Oct 2014 (Local Time) from UUEE Reporting Station
Broken Clouds Broken Clouds  
Wind Chill:   Ceiling: 1800
Heat Index: 21°   Visibility: 6mi
Dew Point: 16°   Wind: 13mph
Humidity: 80%   Direction: 320°NW
Pressure: 29.94"   Gusts: NA
Location:  56.35°N, 37.52°E
Report Text: UUEE 221230Z 32006MPS 9999 BKN018 M06/M09 Q1014 7541015125410145 NOSIG
Loading
Personal Weather Stations






























Interactive Weather Map
Tropical Storm Tracking
New forecast layout! Learn more

10-Day Weather Forecast

Advertisements
Track Severe Weather on mobile